Terminal Aerodrome Forecast
Issued by NWS

Home | Current Version | Previous Version | Text Only | Print | Product List | Glossary On
Versions: 1 2 3 4 5 6 7 8 9 10 11 12 13 14
000
FTUS45 KABQ 302326
TAFSAF
TAF
KSAF 302326Z 3100/3124 26010KT P6SM VCSH SCT080 SCT120
      TEMPO 3100/3102 VRB20G30KT BKN080
     FM310200 14012KT P6SM SCT120
     FM310900 12006KT P6SM SCT035 SCT150
      TEMPO 3112/3115 BKN035
     FM311800 26012KT P6SM SCT080 SCT250=

USA.gov is the U.S. government's official web portal to all federal, state and local government web resources and services.